createdAt,value
2023-01-23T00:11:22.293Z,1.4
2023-01-23T00:16:38.005Z,1.4
2023-01-23T00:18:41.813Z,1.4
2023-01-23T00:20:45.395Z,1.4
2023-01-23T00:22:51.757Z,1.4
2023-01-23T00:24:55.436Z,1.4
2023-01-23T00:29:05.456Z,1.5
2023-01-23T00:33:12.874Z,1.4
2023-01-23T00:35:19.227Z,1.4
2023-01-23T00:37:22.935Z,1.4
2023-01-23T00:41:32.958Z,1.4
2023-01-23T00:45:40.358Z,1.4
2023-01-23T00:47:46.736Z,1.4
2023-01-23T00:51:54.114Z,1.4
2023-01-23T00:54:00.472Z,1.4
2023-01-23T00:56:04.145Z,1.4
2023-01-23T00:58:07.854Z,1.4
2023-01-23T01:00:14.191Z,1.5
2023-01-23T01:02:17.884Z,1.4
2023-01-23T01:10:35.339Z,1.4
2023-01-23T01:12:41.697Z,1.4
2023-01-23T01:14:45.381Z,1.4
2023-01-23T01:16:49.103Z,1.4
2023-01-23T01:21:05.299Z,1.4
2023-01-23T01:32:18.362Z,1.4
2023-01-23T01:36:25.725Z,1.4
2023-01-23T01:50:33.124Z,1.4
2023-01-23T01:52:36.818Z,1.4
2023-01-23T01:54:43.139Z,1.4
2023-01-23T02:00:56.942Z,1.4
2023-01-23T02:03:00.572Z,1.4
2023-01-23T02:05:04.278Z,1.4
2023-01-23T02:11:18.031Z,1.4
2023-01-23T02:27:55.581Z,1.4
2023-01-23T02:29:59.255Z,1.4
2023-01-23T02:32:05.734Z,1.4
2023-01-23T02:34:09.336Z,1.4
2023-01-23T02:36:13.056Z,1.4
2023-01-23T02:38:19.370Z,1.4
2023-01-23T02:40:23.086Z,1.4
2023-01-23T02:42:26.780Z,1.4
2023-01-23T02:44:33.116Z,1.4
2023-01-23T02:46:36.821Z,1.4
2023-01-23T02:48:40.529Z,1.4
2023-01-23T02:50:46.827Z,1.4
2023-01-23T02:54:54.242Z,1.4
2023-01-23T02:59:04.338Z,1.4
2023-01-23T03:03:14.356Z,1.4
2023-01-23T03:05:18.066Z,1.4
2023-01-23T03:07:21.765Z,1.4
2023-01-23T03:09:28.109Z,1.4
2023-01-23T03:11:31.799Z,1.4
2023-01-23T03:13:35.493Z,1.5
2023-01-23T03:15:41.847Z,1.4
2023-01-23T03:17:45.561Z,1.4
2023-01-23T03:21:55.641Z,1.4
2023-01-23T03:23:59.311Z,1.4
2023-01-23T03:26:03.010Z,1.4
2023-01-23T03:28:09.340Z,1.4
2023-01-23T03:30:13.041Z,1.4
2023-01-23T03:32:16.754Z,1.4
2023-01-23T03:36:26.836Z,1.4
2023-01-23T03:40:36.861Z,1.4
2023-01-23T03:42:40.552Z,1.4
2023-01-23T03:44:44.262Z,1.4
2023-01-23T03:51:04.185Z,1.4
2023-01-23T03:56:14.242Z,1.4
2023-01-23T04:02:28.095Z,1.4
2023-01-23T04:06:35.392Z,1.4
2023-01-23T04:08:41.726Z,1.4
2023-01-23T04:10:45.441Z,1.4
2023-01-23T04:12:49.114Z,1.4
2023-01-23T04:23:12.906Z,1.4
2023-01-23T04:27:22.995Z,1.4
2023-01-23T04:33:36.755Z,1.5
2023-01-23T04:35:40.434Z,1.5
2023-01-23T04:41:54.178Z,1.5
2023-01-23T04:48:14.108Z,1.5
2023-01-23T04:52:24.164Z,1.5
2023-01-23T04:54:27.866Z,1.5
2023-01-23T04:56:31.563Z,1.5
2023-01-23T04:58:37.934Z,1.5
2023-01-23T05:00:41.654Z,1.5
2023-01-23T05:02:45.436Z,1.5
2023-01-23T05:04:51.685Z,1.5
2023-01-23T05:06:55.392Z,1.5
2023-01-23T05:08:59.096Z,1.6
2023-01-23T05:11:05.434Z,1.5
2023-01-23T05:13:09.107Z,1.6
2023-01-23T05:15:12.835Z,1.6
2023-01-23T05:17:19.157Z,1.6
2023-01-23T05:19:22.886Z,1.5
2023-01-23T05:23:32.900Z,1.6
2023-01-23T05:27:40.319Z,1.6
2023-01-23T05:29:52.825Z,1.5
2023-01-23T05:36:06.623Z,1.6
2023-01-23T05:40:14.027Z,1.6
2023-01-23T05:44:24.074Z,1.6
2023-01-23T05:46:27.866Z,1.6
2023-01-23T05:48:34.139Z,1.6
2023-01-23T05:50:37.872Z,1.6
2023-01-23T05:52:41.600Z,1.6
2023-01-23T05:54:47.926Z,1.6
2023-01-23T05:56:51.646Z,1.6
2023-01-23T05:58:55.333Z,1.6
2023-01-23T06:03:05.419Z,1.6
2023-01-23T06:07:15.458Z,1.6
2023-01-23T06:11:22.892Z,1.6
2023-01-23T06:15:32.977Z,1.6
2023-01-23T06:17:36.694Z,1.6
2023-01-23T06:19:43.030Z,1.6
2023-01-23T06:25:56.815Z,1.6
2023-01-23T06:28:00.551Z,1.6
2023-01-23T06:30:04.238Z,1.6
2023-01-23T06:32:10.593Z,1.6
2023-01-23T06:34:14.306Z,1.6
2023-01-23T06:36:18.002Z,1.6
2023-01-23T06:45:27.343Z,1.6
2023-01-23T06:47:31.070Z,1.7
2023-01-23T06:49:34.755Z,1.6
2023-01-23T06:51:41.119Z,1.6
2023-01-23T06:53:44.847Z,1.6
2023-01-23T06:55:48.545Z,1.7
2023-01-23T07:07:01.558Z,1.6
2023-01-23T07:09:05.266Z,1.6
2023-01-23T07:11:11.611Z,1.7
2023-01-23T07:13:15.304Z,1.7
2023-01-23T07:15:18.999Z,1.7
2023-01-23T07:21:32.773Z,1.7
2023-01-23T07:25:42.866Z,1.8
2023-01-23T07:29:52.914Z,1.8
2023-01-23T07:31:56.701Z,1.8
2023-01-23T07:34:00.333Z,1.8
2023-01-23T07:36:06.686Z,1.8
2023-01-23T07:38:10.444Z,1.8
2023-01-23T07:40:14.073Z,1.8
2023-01-23T07:44:24.172Z,1.8
2023-01-23T07:46:27.935Z,1.8
2023-01-23T07:48:34.221Z,1.8
2023-01-23T07:50:37.934Z,1.8
2023-01-23T07:52:41.649Z,1.8
2023-01-23T08:01:01.980Z,1.8
2023-01-23T08:03:05.518Z,1.8
2023-01-23T08:05:09.207Z,1.9
2023-01-23T08:07:15.543Z,1.9
2023-01-23T08:11:22.968Z,1.9
2023-01-23T08:13:29.353Z,1.9
2023-01-23T08:15:33.085Z,1.9
2023-01-23T08:17:36.831Z,1.9
2023-01-23T08:25:56.926Z,2
2023-01-23T08:28:00.644Z,2
2023-01-23T08:30:04.316Z,2
2023-01-23T08:32:10.711Z,2
2023-01-23T08:34:14.430Z,2.1
2023-01-23T08:38:24.486Z,2.1
2023-01-23T08:40:28.196Z,2.1
2023-01-23T08:42:31.940Z,2.2
2023-01-23T08:44:38.278Z,2.2
2023-01-23T08:46:41.975Z,2.2
2023-01-23T08:48:45.699Z,2.2
2023-01-23T08:50:52.203Z,2.3
2023-01-23T08:52:55.823Z,2.3
2023-01-23T08:57:05.898Z,2.4
2023-01-23T08:59:09.584Z,2.4
2023-01-23T09:01:13.366Z,2.4
2023-01-23T09:03:19.700Z,2.4
2023-01-23T09:05:23.429Z,2.4
2023-01-23T09:07:27.150Z,2.5
2023-01-23T09:12:39.441Z,2.5
2023-01-23T09:14:43.249Z,2.6
2023-01-23T09:16:46.910Z,2.6
2023-01-23T09:18:53.244Z,2.7
2023-01-23T09:20:56.981Z,2.6
2023-01-23T09:23:00.703Z,2.6
2023-01-23T09:25:07.083Z,2.7
2023-01-23T09:27:10.837Z,2.7
2023-01-23T09:29:14.507Z,2.8
2023-01-23T09:31:20.972Z,2.8
2023-01-23T09:33:24.606Z,2.8
2023-01-23T09:35:28.313Z,2.8
2023-01-23T09:37:34.669Z,2.8
2023-01-23T09:41:42.165Z,2.9
2023-01-23T09:43:48.514Z,3
2023-01-23T09:45:52.323Z,2.9
2023-01-23T09:47:55.970Z,3
2023-01-23T09:50:02.367Z,3
2023-01-23T09:52:06.099Z,3
2023-01-23T09:54:09.821Z,3
2023-01-23T09:56:16.226Z,3.1
2023-01-23T09:58:19.968Z,3.1
2023-01-23T10:00:23.761Z,3.1
2023-01-23T10:02:48.303Z,3.3
2023-01-23T10:04:52.055Z,3.3
2023-01-23T10:09:02.948Z,3.4
2023-01-23T10:11:06.605Z,3.4
2023-01-23T10:13:10.298Z,3.4
2023-01-23T10:15:14.055Z,3.4
2023-01-23T10:19:21.564Z,3.5
2023-01-23T10:21:25.300Z,3.5
2023-01-23T10:23:32.355Z,3.5
2023-01-23T10:27:39.835Z,3.4
2023-01-23T10:29:43.576Z,3.4
2023-01-23T10:31:47.521Z,3.5
2023-01-23T10:33:51.135Z,3.6
2023-01-23T10:35:54.864Z,3.7
2023-01-23T10:38:01.894Z,3.7
2023-01-23T10:40:05.627Z,3.6
2023-01-23T10:42:09.369Z,3.6
2023-01-23T10:44:13.157Z,3.7
2023-01-23T10:46:17.064Z,3.7
2023-01-23T10:48:20.654Z,3.7
2023-01-23T10:50:24.410Z,3.8
2023-01-23T10:52:31.449Z,3.8
2023-01-23T10:54:35.220Z,3.8
2023-01-23T10:56:38.979Z,3.9
2023-01-23T10:57:43.990Z,3.8
2023-01-23T10:59:46.225Z,3.8
2023-01-23T11:03:53.760Z,3.8
2023-01-23T11:06:00.808Z,3.7
2023-01-23T11:08:04.569Z,3.6
2023-01-23T11:10:08.327Z,3.6
2023-01-23T11:14:15.864Z,3.7
2023-01-23T11:16:19.783Z,3.8
2023-01-23T11:18:23.399Z,3.7
2023-01-23T11:26:41.721Z,3.6
2023-01-23T11:32:53.035Z,3.7
2023-01-23T11:37:03.841Z,3.7
2023-01-23T11:45:19.066Z,3.9
2023-01-23T11:49:29.687Z,3.9
2023-01-23T11:51:33.517Z,3.9
2023-01-23T11:53:42.991Z,4
2023-01-23T11:54:40.724Z,4
2023-01-23T11:56:44.473Z,4
2023-01-23T11:58:50.348Z,4.1
2023-01-23T12:00:52.014Z,4.2
2023-01-23T12:02:59.070Z,4.3
2023-01-23T12:07:06.548Z,4.3
2023-01-23T12:11:14.115Z,4.2
2023-01-23T12:13:17.876Z,4.2
2023-01-23T12:15:21.644Z,4.1
2023-01-23T12:17:28.697Z,4.1
2023-01-23T12:19:32.479Z,4.1
2023-01-23T12:21:36.239Z,4.2
2023-01-23T12:23:41.773Z,4.2
2023-01-23T12:25:43.777Z,4.3
2023-01-23T12:27:47.654Z,4.3
2023-01-23T12:29:51.347Z,4.3
2023-01-23T12:31:58.491Z,4.3
2023-01-23T12:34:02.153Z,4.3
2023-01-23T12:36:05.926Z,4.3
2023-01-23T12:38:09.731Z,4.3
2023-01-23T12:40:13.482Z,4.2
2023-01-23T12:42:17.262Z,4.2
2023-01-23T12:44:21.013Z,4.2
2023-01-23T12:46:28.278Z,4.2
2023-01-23T12:48:31.875Z,4.3
2023-01-23T12:50:35.659Z,4.3
2023-01-23T12:51:39.127Z,4.3
2023-01-23T12:53:42.933Z,4.3
2023-01-23T12:55:46.702Z,4.3
2023-01-23T12:59:57.585Z,4.2
2023-01-23T13:02:01.360Z,4.2
2023-01-23T13:04:05.094Z,4.2
2023-01-23T13:06:08.849Z,4.2
2023-01-23T13:08:12.614Z,4.2
2023-01-23T13:10:16.396Z,4.1
2023-01-23T13:16:31.031Z,4.3
2023-01-23T13:18:36.418Z,4.3
2023-01-23T13:20:40.184Z,4.2
2023-01-23T13:22:43.931Z,4.2
2023-01-23T13:24:47.705Z,4.2
2023-01-23T13:28:58.530Z,4.1
2023-01-23T13:33:06.075Z,4
2023-01-23T13:35:09.836Z,4
2023-01-23T13:37:13.628Z,4.1
2023-01-23T13:39:17.425Z,4.1
2023-01-23T13:41:21.143Z,4
2023-01-23T13:43:28.202Z,4
2023-01-23T13:45:32.075Z,4
2023-01-23T14:21:03.831Z,3.8
2023-01-23T14:23:07.635Z,3.8
2023-01-23T14:25:14.679Z,3.7
2023-01-23T14:27:21.654Z,3.7
2023-01-23T14:29:22.220Z,3.7
2023-01-23T14:31:26.044Z,3.7
2023-01-23T14:33:29.705Z,3.7
2023-01-23T14:35:33.493Z,3.7
2023-01-23T14:37:37.259Z,3.7
2023-01-23T14:39:50.528Z,3.7
2023-01-23T14:41:48.040Z,3.7
2023-01-23T14:43:51.801Z,3.6
2023-01-23T14:44:55.329Z,3.6
2023-01-23T14:46:59.134Z,3.6
2023-01-23T14:49:02.851Z,3.6
2023-01-23T14:51:06.639Z,3.6
2023-01-23T14:53:13.718Z,3.6
2023-01-23T14:55:25.371Z,3.6
2023-01-23T14:57:21.183Z,3.5
2023-01-23T14:59:24.944Z,3.5
2023-01-23T15:01:28.790Z,3.5
2023-01-23T15:03:32.590Z,3.5
2023-01-23T15:05:36.214Z,3.5
2023-01-23T15:07:43.237Z,3.5
2023-01-23T15:09:47.007Z,3.5
2023-01-23T15:11:50.753Z,3.5
2023-01-23T15:13:54.498Z,3.5
2023-01-23T15:15:58.262Z,3.5
2023-01-23T15:18:01.999Z,3.7
2023-01-23T15:20:05.750Z,3.9
2023-01-23T15:22:12.745Z,4.1
2023-01-23T15:24:16.610Z,4.2
2023-01-23T15:26:20.236Z,4.4
2023-01-23T15:30:27.729Z,4.3
2023-01-23T15:32:31.487Z,3.9
2023-01-23T15:34:35.213Z,3.7
2023-01-23T15:36:42.237Z,3.6
2023-01-23T15:38:45.993Z,3.5
2023-01-23T15:40:49.732Z,3.5
2023-01-23T15:41:53.208Z,3.5
2023-01-23T15:43:56.975Z,3.4
2023-01-23T15:48:04.459Z,3.4
2023-01-23T15:50:11.524Z,3.4
2023-01-23T15:52:15.269Z,3.4
2023-01-23T15:54:18.970Z,3.4
2023-01-23T15:56:22.740Z,3.4
2023-01-23T15:58:26.472Z,3.3
2023-01-23T16:00:30.241Z,3.3
2023-01-23T16:02:37.409Z,3.3
2023-01-23T16:04:41.016Z,3.3
2023-01-23T16:06:44.746Z,3.3
2023-01-23T16:08:55.087Z,3.3
2023-01-23T16:10:52.251Z,3.3
2023-01-23T16:12:55.994Z,3.3
2023-01-23T16:14:59.977Z,3.3
2023-01-23T16:17:15.524Z,3.3
2023-01-23T16:19:10.501Z,3.3
2023-01-23T16:21:14.234Z,3.2
2023-01-23T16:23:17.998Z,3.2
2023-01-23T16:25:23.608Z,3.3
2023-01-23T16:27:25.524Z,3.3
2023-01-23T16:29:29.284Z,3.2
2023-01-23T16:31:33.307Z,3.2
2023-01-23T16:33:40.116Z,3.2
2023-01-23T16:35:43.797Z,3.2
2023-01-23T16:37:47.540Z,3.3
2023-01-23T16:40:54.823Z,3.2
2023-01-23T16:42:58.560Z,3.2
2023-01-23T16:45:02.305Z,3.3
2023-01-23T16:49:13.065Z,3.3
2023-01-23T16:51:16.842Z,3.3
2023-01-23T16:53:20.592Z,3.3
2023-01-23T16:55:24.315Z,3.3
2023-01-23T16:57:28.088Z,3.2
2023-01-23T16:59:31.826Z,3.3
2023-01-23T17:01:38.979Z,3.2
2023-01-23T17:03:42.592Z,3.2
2023-01-23T17:05:46.343Z,3.2
2023-01-23T17:07:50.113Z,3.2
2023-01-23T17:09:53.851Z,3.2
2023-01-23T17:11:57.595Z,3.2
2023-01-23T17:14:01.377Z,3.2
2023-01-23T17:16:21.889Z,3.2
2023-01-23T17:18:12.101Z,3.2
2023-01-23T17:20:15.846Z,3.2
2023-01-23T17:22:19.609Z,3.2
2023-01-23T17:24:23.299Z,3.2
2023-01-23T17:26:27.083Z,3.2
2023-01-23T17:30:37.843Z,3.2
2023-01-23T17:34:50.073Z,3.2
2023-01-23T17:41:11.343Z,3.1
2023-01-23T17:43:18.370Z,3.1
2023-01-23T17:45:22.764Z,3.1
2023-01-23T17:47:25.899Z,3.1
2023-01-23T17:49:29.617Z,3.1
2023-01-23T17:51:33.453Z,3.2
2023-01-23T17:53:37.157Z,3.2
2023-01-23T17:55:40.989Z,3.2
2023-01-23T18:01:55.422Z,3.1
2023-01-23T18:03:59.142Z,3.1
2023-01-23T18:06:02.872Z,3.1
2023-01-23T18:08:06.643Z,3.1
2023-01-23T18:10:10.381Z,3
2023-01-23T18:12:17.419Z,3
2023-01-23T18:16:24.937Z,3
2023-01-23T18:18:28.702Z,3
2023-01-23T18:20:32.458Z,3
2023-01-23T18:22:36.209Z,3
2023-01-23T18:24:39.953Z,3
2023-01-23T18:26:46.960Z,3
2023-01-23T18:28:50.724Z,3
2023-01-23T18:30:54.531Z,3
2023-01-23T18:31:57.988Z,3
2023-01-23T18:34:01.748Z,3
2023-01-23T18:36:05.452Z,3
2023-01-23T18:38:09.233Z,3.1
2023-01-23T18:40:17.510Z,3.1
2023-01-23T18:42:19.997Z,3.1
2023-01-23T18:44:23.731Z,3.1
2023-01-23T18:46:27.570Z,3.1
2023-01-23T18:48:31.183Z,3.1
2023-01-23T18:50:34.978Z,3.1
2023-01-23T18:52:38.690Z,3.1
2023-01-23T18:59:06.250Z,3.1
2023-01-23T19:00:56.951Z,3.1
2023-01-23T19:03:00.660Z,3.1
2023-01-23T19:05:04.411Z,3.1
2023-01-23T19:09:15.171Z,3.1
2023-01-23T19:11:18.901Z,3.1
2023-01-23T19:13:22.614Z,3.1
2023-01-23T19:23:46.238Z,3.2
2023-01-23T19:25:49.949Z,3.2
2023-01-23T19:27:53.700Z,3.2
2023-01-23T19:28:57.466Z,3.2
2023-01-23T19:31:01.123Z,3.2
2023-01-23T19:33:04.682Z,3.2
2023-01-23T19:35:14.075Z,3.2
2023-01-23T19:37:15.475Z,3.2
2023-01-23T19:39:19.239Z,3.2
2023-01-23T19:43:28.026Z,3.2
2023-01-23T19:45:30.427Z,3.2
2023-01-23T19:47:34.217Z,3.2
2023-01-23T19:49:37.951Z,3.2
2023-01-23T19:51:44.952Z,3.2
2023-01-23T19:53:48.712Z,3.1
2023-01-23T19:55:52.427Z,3.1
2023-01-23T19:57:56.216Z,3.1
2023-01-23T19:59:59.961Z,3.1
2023-01-23T20:02:03.708Z,3.1
2023-01-23T20:04:07.423Z,3.1
2023-01-23T20:06:14.441Z,3.1
2023-01-23T20:08:18.190Z,3.1
2023-01-23T20:10:21.929Z,3.1
2023-01-23T20:12:25.682Z,3.1
2023-01-23T20:14:29.419Z,3.1
2023-01-23T20:16:33.177Z,3.1
2023-01-23T20:18:36.905Z,3.1
2023-01-23T20:20:43.894Z,3.1
2023-01-23T20:22:47.648Z,3.1
2023-01-23T20:24:51.412Z,3.1
2023-01-23T20:25:54.874Z,3.1
2023-01-23T20:27:58.648Z,3.1
2023-01-23T20:30:02.404Z,3.1
2023-01-23T20:32:06.239Z,3.2
2023-01-23T20:34:13.168Z,3.2
2023-01-23T20:36:16.909Z,3.2
2023-01-23T20:38:20.671Z,3.2
2023-01-23T20:40:24.413Z,3.2
2023-01-23T20:42:28.131Z,3.2
2023-01-23T20:50:46.394Z,3.2
2023-01-23T20:52:50.167Z,3.2
2023-01-23T20:54:53.900Z,3.2
2023-01-23T21:01:05.183Z,3.2
2023-01-23T21:05:15.892Z,3.1
2023-01-23T21:07:19.632Z,3.1
2023-01-23T21:09:23.369Z,3.2
2023-01-23T21:11:27.118Z,3.3
2023-01-23T21:13:30.862Z,3.2
2023-01-23T21:15:34.604Z,3.3
2023-01-23T21:17:41.628Z,3.3
2023-01-23T21:19:45.360Z,3.2
2023-01-23T21:21:49.099Z,3.2
2023-01-23T21:23:55.520Z,3.2
2023-01-23T21:25:59.242Z,3.2
2023-01-23T21:28:02.980Z,3.1
2023-01-23T21:34:35.300Z,3.2
2023-01-23T21:36:42.319Z,3.1
2023-01-23T21:38:46.035Z,3.1
2023-01-23T21:40:49.805Z,3.1
2023-01-23T21:42:53.531Z,3.1
2023-01-23T21:44:57.289Z,3.1
2023-01-23T21:49:04.812Z,3.1
2023-01-23T21:51:11.792Z,3.1
2023-01-23T21:53:15.553Z,3.1
2023-01-23T21:55:19.438Z,3.2
2023-01-23T21:57:23.037Z,3.1
2023-01-23T21:59:26.778Z,3.2
2023-01-23T22:01:30.581Z,3.2
2023-01-23T22:05:41.285Z,3.2
2023-01-23T22:07:45.055Z,3.2
2023-01-23T22:09:48.761Z,3.2
2023-01-23T22:11:52.550Z,3.1
2023-01-23T22:13:56.243Z,3.1
2023-01-23T22:16:00.030Z,3.1
2023-01-23T22:18:03.741Z,3.1
2023-01-23T22:20:10.794Z,3.1
2023-01-23T22:22:14.528Z,3.1
2023-01-23T22:24:18.586Z,3.1
2023-01-23T22:25:22.075Z,3.1
2023-01-23T22:27:25.529Z,3.1
2023-01-23T22:29:29.264Z,3.2
2023-01-23T22:31:33.141Z,3.2
2023-01-23T22:33:41.009Z,3.1
2023-01-23T22:35:43.765Z,3.1
2023-01-23T22:37:47.511Z,3.2
2023-01-23T22:41:55.000Z,3.1
2023-01-23T22:43:58.960Z,3.1
2023-01-23T22:46:02.475Z,3.2
2023-01-23T22:48:09.511Z,3.2
2023-01-23T22:50:13.246Z,3.2
2023-01-23T22:52:17.008Z,3.2
2023-01-23T22:54:20.752Z,3.2
2023-01-23T22:56:24.489Z,3.2
2023-01-23T22:58:28.215Z,3.2
2023-01-23T23:00:31.979Z,3.2
2023-01-23T23:04:42.721Z,3.2
2023-01-23T23:06:46.477Z,3.2
2023-01-23T23:08:50.289Z,3.2
2023-01-23T23:10:53.983Z,3.2
2023-01-23T23:12:57.692Z,3.2
2023-01-23T23:15:01.442Z,3.2
2023-01-23T23:17:08.505Z,3.2
2023-01-23T23:19:12.190Z,3.2
2023-01-23T23:22:19.473Z,3.1
2023-01-23T23:24:23.262Z,3.1
2023-01-23T23:26:26.986Z,3.1
2023-01-23T23:28:30.693Z,3.1
2023-01-23T23:30:37.727Z,3.1
2023-01-23T23:32:41.462Z,3.1
2023-01-23T23:34:45.197Z,3.1
2023-01-23T23:36:48.965Z,3.1
2023-01-23T23:38:52.668Z,3.1
2023-01-23T23:40:56.454Z,3.1
2023-01-23T23:43:00.168Z,3.1
2023-01-23T23:45:07.187Z,3.1
2023-01-23T23:53:22.166Z,3.1
2023-01-23T23:55:25.913Z,3.1
2023-01-23T23:57:29.634Z,3.2
